Johan Hjort — LDGJ — position and weather

sailwx.info

Track history (hours):
 
Tides and Currents Weather Stations Pressure Air Temp Water Temp Dewpoint Dewpoint Depression Visibility Wind Speed Wind Dir Waves Ship Positions

Oceanographic research ship Johan Hjort (Norway)

Detailed information on ship capabilities available from University of Delaware's Ocean Information Center and ARCUS's ALIAS (Arctic Logistics Information and Support) project.

Last reported at 2019-Apr-24 22:30 UTC. Time now 2019-Apr-24 22:40 UTC.
Position N 58°52' E 005°31'.

MMSI: 257139000.

Date/timePositionNaut miles runAvg speedWind from/ knotsBaromVisibWave heightAir tempDewpointWater temp
2019-Apr-24 22:30N 58°52' E 005°31'510.3
2019-Apr-24 22:00N 58°57' E 005°33'4251.6
2019-Apr-24 22:00N 58°54' E 005°30'817.5 100 / 251006.7 13.0 4.9 7.4
2019-Apr-24 21:30N 59°02' E 005°32'510.2
2019-Apr-24 21:00N 59°07' E 005°31'2115.9
2019-Apr-24 21:00N 59°06' E 005°30'511.1 090 / 161008.2 13.7 2.1 7.8
2019-Apr-24 20:30N 59°11' E 005°35'1 2.7
2019-Apr-24 20:00N 59°12' E 005°37'6412.7
2019-Apr-24 20:00N 59°06' E 005°36'510.5 100 / 231008.3 12.5 2.1 7.9
2019-Apr-24 19:31N 59°11' E 005°36'1 1.6
2019-Apr-24 19:00N 59°11' E 005°35'6383.8
2019-Apr-24 19:00N 59°06' E 005°30'713.9 100 / 191008.4 12.8 2.2 7.9
2019-Apr-24 18:30N 59°12' E 005°35'0 0.7
2019-Apr-24 18:00N 59°12' E 005°35'6453.9
2019-Apr-24 18:00N 59°06' E 005°30'612.1 110 / 251008.1 14.0 0.3 7.8
2019-Apr-24 17:30N 59°11' E 005°34'1 1.1
2019-Apr-24 17:01N 59°12' E 005°35'6373.8
2019-Apr-24 17:00N 59°06' E 005°30'4 9.2 090 / 211007.3 14.0 0.1 7.9
2019-Apr-24 16:30N 59°10' E 005°34'510.4
2019-Apr-24 16:00N 59°05' E 005°33'5445.2
2019-Apr-24 16:00N 59°00' E 005°30'510.6 110 / 251007.6 14.0 0.2 7.9
2019-Apr-24 15:30N 59°01' E 005°40'3 6.1
2019-Apr-24 15:01N 58°58' E 005°44'4260.3
2019-Apr-24 15:00N 58°54' E 005°42'4 8.2 120 / 141007.7 16.2-1.4 7.9
2019-Apr-24 14:27N 58°58' E 005°44'0 0.0
2019-Apr-24 14:00N 58°58' E 005°44'41467.1
2019-Apr-24 14:00N 58°54' E 005°42'4 9.0 110 / 121008.0 16.6-1.5 8.2
2019-Apr-24 13:30N 58°58' E 005°44'0 0.0
2019-Apr-24 13:00N 58°58' E 005°44'41793.1
2019-Apr-24 13:00N 58°54' E 005°42'4 9.0 100 / 101007.7 17.1-2.1 8.2
2019-Apr-24 12:30N 58°58' E 005°44'0 0.0
2019-Apr-24 12:00N 58°58' E 005°44'42017.3
2019-Apr-24 12:00N 58°54' E 005°42'4 8.2 100 / 101008.3 17.3-3.4 7.9
2019-Apr-24 11:27N 58°58' E 005°44'4 9.9
2019-Apr-24 11:00N 58°54' E 005°42'492.2 100 / 161009.2 17.3-2.9 8.2
2019-Apr-24 10:57N 58°58' E 005°44'0 0.0
2019-Apr-24 10:30N 58°58' E 005°44'4 8.9
2019-Apr-24 10:00N 58°54' E 005°42'491.7 080 / 61009.2 16.3-2.2 8.0
2019-Apr-24 09:57N 58°58' E 005°44'0 0.0
2019-Apr-24 09:30N 58°58' E 005°44'4 8.9
2019-Apr-24 09:00N 58°54' E 005°42'491.2 090 / 61010.1 15.6-1.5 8.0
2019-Apr-24 08:57N 58°58' E 005°44'0 0.0
2019-Apr-24 08:30N 58°58' E 005°44'0 0.0
2019-Apr-24 08:00N 58°58' E 005°44'0 0.0
2019-Apr-24 07:26N 58°58' E 005°44'410.0
2019-Apr-24 07:00N 58°54' E 005°42'48069.1 090 / 41010.9 14.3-4.5 8.2
2019-Apr-24 06:59N 58°58' E 005°44'0 0.0
2019-Apr-24 06:29N 58°58' E 005°44'4 9.0
2019-Apr-24 06:00N 58°54' E 005°42'45379.5 100 / 41011.0 13.0-3.3 8.3
2019-Apr-24 05:59N 58°58' E 005°44'0 0.0
2019-Apr-24 05:29N 58°58' E 005°44'4 9.0
2019-Apr-24 05:00N 58°54' E 005°42'43231.9 080 / 41011.1 12.0-3.7 8.2
2019-Apr-24 04:59N 58°58' E 005°44'0 0.0
2019-Apr-24 04:29N 58°58' E 005°44'4 9.0
2019-Apr-24 04:00N 58°54' E 005°42'42689.7 080 / 61011.8 12.4-4.3 8.1
2019-Apr-24 03:59N 58°58' E 005°44'0 0.0
2019-Apr-24 03:29N 58°58' E 005°44'4 9.0
2019-Apr-24 03:00N 58°54' E 005°42'42017.3 100 / 41012.5 12.5-4.1 8.0
2019-Apr-24 02:59N 58°58' E 005°44'0 0.0
2019-Apr-24 02:29N 58°58' E 005°44'4 9.0
2019-Apr-24 02:00N 58°54' E 005°42'41613.8 060 / 41013.2 13.0-4.6 8.2
2019-Apr-24 01:59N 58°58' E 005°44'0 0.0
2019-Apr-24 01:29N 58°58' E 005°44'4 9.0
2019-Apr-24 01:00N 58°54' E 005°42'41467.1 100 / 21013.6 13.5-5.1 7.9
2019-Apr-24 00:59N 58°58' E 005°44'0 0.0
2019-Apr-24 00:29N 58°58' E 005°44'4 9.0
2019-Apr-24 00:00N 58°54' E 005°42'483.6 090 / 61014.7 14.1-5.6 7.9
2019-Apr-23 23:56N 58°58' E 005°44'0 0.0
2019-Apr-23 23:29N 58°58' E 005°44'4 9.0
2019-Apr-23 23:00N 58°54' E 005°42'41152.8 110 / 41014.5 15.0-5.9 8.6
2019-Apr-23 22:59N 58°58' E 005°44'0 0.0
2019-Apr-23 22:29N 58°58' E 005°44'4 9.0
2019-Apr-23 22:00N 58°54' E 005°42'41008.7 120 / 81014.8 16.0-7.0 8.2
2019-Apr-23 21:59N 58°58' E 005°44'0 0.0
2019-Apr-23 21:29N 58°58' E 005°44'4 9.1
2019-Apr-23 21:00N 58°54' E 005°42'4949.3 110 / 101014.7 16.1-7.5 8.0
2019-Apr-23 20:59N 58°58' E 005°44'0 0.0
2019-Apr-23 20:29N 58°58' E 005°44'4 9.1
2019-Apr-23 20:00N 58°54' E 005°42'4849.4 110 / 61015.0 16.3-7.4 8.1
2019-Apr-23 19:59N 58°58' E 005°44'0 0.0
2019-Apr-23 19:29N 58°58' E 005°44'4 9.1
2019-Apr-23 19:00N 58°54' E 005°42'4768.5 110 / 101014.7 16.6-7.8 8.4
2019-Apr-23 18:59N 58°58' E 005°44'0 0.0
2019-Apr-23 18:29N 58°58' E 005°44'4 9.1
2019-Apr-23 18:00N 58°54' E 005°42'4701.7 100 / 81014.3 17.4-8.6 8.3
2019-Apr-23 17:59N 58°58' E 005°44'0 0.0
2019-Apr-23 17:29N 58°58' E 005°44'1 1.3
2019-Apr-23 17:00N 58°59' E 005°43'5414.7
2019-Apr-23 17:00N 58°54' E 005°42'713.5 100 / 191014.1 16.6-7.1 8.0
2019-Apr-23 16:30N 59°00' E 005°40'2 4.5
2019-Apr-23 16:01N 59°02' E 005°37'2115.2
2019-Apr-23 16:00N 59°00' E 005°36'713.8 100 / 251014.2 15.5-5.0 7.6
2019-Apr-23 15:30N 59°06' E 005°30'611.0
2019-Apr-23 15:00N 59°07' E 005°20'170.0
2019-Apr-23 15:00N 59°06' E 005°18'5 9.5 100 / 251014.6 13.7 0.1 7.7
2019-Apr-23 14:30N 59°08' E 005°10'510.8
2019-Apr-23 14:00N 59°13' E 005°08'196.9
2019-Apr-23 14:00N 59°12' E 005°06'713.7 100 / 271014.6 17.0-1.8 7.4
2019-Apr-23 13:30N 59°19' E 005°07'611.0
2019-Apr-23 13:00N 59°24' E 005°08'174.6
2019-Apr-23 13:00N 59°24' E 005°06'4 8.7 110 / 271015.6 16.0-1.1 7.4
2019-Apr-23 12:30N 59°28' E 005°04'4 8.8
2019-Apr-23 12:00N 59°32' E 004°59'3222.2
2019-Apr-23 12:00N 59°30' E 004°54'714.9 130 / 251016.2 13.7 1.0 7.3
2019-Apr-23 11:30N 59°37' E 004°59'510.8
2019-Apr-23 11:00N 59°42' E 004°57'2111.5
2019-Apr-23 11:00N 59°42' E 004°54'510.3 140 / 171016.5 13.0 2.4 7.6
2019-Apr-23 10:30N 59°47' E 004°52'510.8
2019-Apr-23 10:00N 59°51' E 004°45'3366.4
2019-Apr-23 10:00N 59°48' E 004°42'714.4 130 / 191016.7 11.6 2.4 7.6
2019-Apr-23 09:30N 59°54' E 004°36'510.9
2019-Apr-23 09:00N 59°57' E 004°27'4418.7
2019-Apr-23 09:00N 59°54' E 004°24'713.1 120 / 211016.7 10.8 2.8 7.0
2019-Apr-23 08:29N 59°60' E 004°16'510.8
2019-Apr-23 08:00N 60°00' E 004°06'169.8 120 / 211016.4 10.4 2.7 7.5
2019-Apr-23 07:58N 60°01' E 004°06'510.6
2019-Apr-23 07:30N 60°03' E 003°57'611.1
2019-Apr-23 07:00N 60°05' E 003°46'5438.3
2019-Apr-23 07:00N 60°00' E 003°42'714.2 130 / 211016.1 9.8 2.4 7.2
2019-Apr-23 06:29N 60°06' E 003°35'510.4
2019-Apr-23 06:00N 60°07' E 003°25'1100.5
2019-Apr-23 06:00N 60°06' E 003°24'2 3.9 130 / 231015.4 10.0 2.6 8.6
2019-Apr-23 05:30N 60°07' E 003°21'4 7.9
2019-Apr-23 05:00N 60°08' E 003°14'2404.5
2019-Apr-23 05:00N 60°06' E 003°12'4 9.1 130 / 271015.1 10.8 2.4 8.3
2019-Apr-23 04:30N 60°09' E 003°06'3 5.8
2019-Apr-23 04:00N 60°11' E 003°01'5399.3
2019-Apr-23 04:00N 60°06' E 003°00'611.2 140 / 251015.1 10.3 2.9 8.4
2019-Apr-23 03:28N 60°12' E 002°58'2 4.6
2019-Apr-23 03:00N 60°14' E 002°57'3 6.0
2019-Apr-23 02:29N 60°17' E 002°55'2 4.8
2019-Apr-23 02:00N 60°18' E 002°51'2271.3
2019-Apr-23 02:00N 60°18' E 002°48'0 0.9 140 / 271015.6 11.2 1.8 8.2
2019-Apr-23 01:30N 60°18' E 002°47'815.9
2019-Apr-23 01:00N 60°12' E 002°36'63106.2 150 / 251015.6 10.5 3.3 8.3
2019-Apr-23 00:59N 60°17' E 002°42'2 3.2
2019-Apr-23 00:30N 60°18' E 002°39'3 6.5
2019-Apr-23 00:00N 60°21' E 002°39'2 4.3
2019-Apr-22 23:30N 60°23' E 002°39'2 3.1
2019-Apr-22 23:00N 60°23' E 002°36'610501.9
2019-Apr-22 23:00N 60°18' E 002°30'4 9.1 150 / 171015.3 10.2 3.7 8.3
2019-Apr-22 22:30N 60°22' E 002°31'4 7.5
2019-Apr-22 22:00N 60°24' E 002°24'31291.1 160 / 191015.1 10.3 3.3 8.3
2019-Apr-22 21:59N 60°24' E 002°30'3 5.3
2019-Apr-22 21:30N 60°24' E 002°25'916.8
2019-Apr-22 21:00N 60°18' E 002°12'5672.4 150 / 211015.3 10.1 3.8 8.3
2019-Apr-22 20:59N 60°23' E 002°15'4 9.0
2019-Apr-22 20:30N 60°22' E 002°07'4 9.0
2019-Apr-22 20:00N 60°21' E 001°58'3358.4
2019-Apr-22 20:00N 60°18' E 001°54'2 3.9 150 / 231015.0 9.6 4.9 8.1
2019-Apr-22 19:29N 60°18' E 001°50'1 2.3
2019-Apr-22 19:00N 60°18' E 001°48'2226.1 150 / 251014.5 9.2 5.0 8.0
2019-Apr-22 18:59N 60°20' E 001°49'1 2.3
2019-Apr-22 18:30N 60°21' E 001°49'713.9
2019-Apr-22 18:00N 60°18' E 001°36'9 8.9 150 / 211013.9 9.1 5.3 8.1
2019-Apr-22 17:00N 60°18' E 001°18'1 5.1 150 / 161013.7 9.0 5.2 8.2
2019-Apr-22 16:50N 60°18' E 001°20'7 9.0
2019-Apr-22 16:06N 60°17' E 001°07'655.2
2019-Apr-22 16:00N 60°12' E 001°00'4 7.0 140 / 211013.2 9.3 5.2 8.3
2019-Apr-22 15:23N 60°15' E 000°55'512.5
2019-Apr-22 15:00N 60°12' E 000°48'635.9 150 / 211013.3 9.3 5.2 8.2
2019-Apr-22 14:50N 60°18' E 000°52'0 0.8
2019-Apr-22 14:24N 60°18' E 000°51'717.8
2019-Apr-22 14:00N 60°12' E 000°42'652.1 150 / 211013.1 9.2 4.3 8.3
2019-Apr-22 13:53N 60°18' E 000°43'4 8.9
2019-Apr-22 13:28N 60°18' E 000°36'816.7
2019-Apr-22 13:00N 60°12' E 000°24'536.8 150 / 231012.8 9.5 3.6 8.2
2019-Apr-22 12:51N 60°17' E 000°25'7 8.7
2019-Apr-22 12:02N 60°16' E 000°11'5115.7
2019-Apr-22 12:00N 60°12' E 000°06'5128.2 160 / 271011.9 10.0 3.6 8.4
2019-Apr-22 11:57N 60°16' E 000°09'3 6.3
2019-Apr-22 11:29N 60°16' E 000°03'4 8.1
2019-Apr-22 11:00N 60°12' E 000°00'327.4 160 / 251011.7 9.5 4.3 8.3
2019-Apr-22 10:53N 60°15' W 000°01'2 4.6
2019-Apr-22 10:30N 60°14' W 000°05'2 4.5
2019-Apr-22 10:00N 60°12' W 000°06'3 3.0 160 / 251010.8 9.4 4.3 8.3
2019-Apr-22 09:00N 60°12' W 000°12'0 0.0 160 / 291010.7 9.3 4.1 8.1
2019-Apr-22 08:00N 60°12' W 000°12'3 7.6 160 / 271010.3 9.4 4.0 8.4
2019-Apr-22 07:35N 60°15' W 000°11'4 6.9
2019-Apr-22 07:00N 60°12' W 000°06'5 9.9 160 / 291010.2 9.4 3.8 8.3
2019-Apr-22 06:28N 60°16' W 000°12'4 8.7
2019-Apr-22 06:00N 60°12' W 000°12'31406.4 160 / 251009.8 9.3 4.1 8.3
2019-Apr-22 05:59N 60°15' W 000°14'3 3.4
2019-Apr-22 05:00N 60°12' W 000°18'3 3.0 170 / 271009.7 9.3 4.9 8.3
2019-Apr-22 04:00N 60°12' W 000°12'0 0.0 170 / 271009.2 9.3 5.2 8.3
2019-Apr-22 03:00N 60°12' W 000°12'3 1.5 170 / 251009.5 9.4 5.3 8.3
2019-Apr-22 01:00N 60°12' W 000°06'3 3.0 170 / 231009.1 9.6 5.6 8.6
2019-Apr-22 00:00N 60°12' W 000°12'0 0.0 170 / 251009.2 9.6 5.8 8.6
2019-Apr-21 23:00N 60°12' W 000°12'3 3.0 170 / 211009.3 9.7 6.1 8.3
2019-Apr-21 22:00N 60°12' W 000°06'6 6.0 160 / 211010.0 9.7 6.4 8.5
2019-Apr-21 21:00N 60°12' W 000°18'3 3.0 160 / 231010.1 9.7 6.4 8.3
2019-Apr-21 20:00N 60°12' W 000°12'0 0.0 160 / 191011.0 9.6 6.7 8.5
2019-Apr-21 19:00N 60°12' W 000°12'3 3.0 160 / 161011.2 9.0 6.8 8.6
2019-Apr-21 18:00N 60°12' W 000°06'0 0.0 150 / 171011.2 8.9 6.9 8.6
2019-Apr-21 17:00N 60°12' W 000°06'6 6.0 140 / 161011.8 9.1 7.1 8.7
2019-Apr-21 16:00N 60°12' W 000°18'3 3.0 150 / 12812.2 8.9 6.8 8.4
2019-Apr-21 15:00N 60°12' W 000°12'3 3.0 160 / 101013.7 8.8 6.9 8.5
2019-Apr-21 14:00N 60°12' W 000°18'3 3.0 160 / 61014.5 8.8 6.7 8.5
2019-Apr-21 13:00N 60°12' W 000°12'3 3.0 150 / 121015.0 8.5 6.5 8.7
2019-Apr-21 12:00N 60°12' W 000°06'3 3.0 130 / 101016.1 8.5 6.3 8.6
2019-Apr-21 11:00N 60°12' W 000°12'0 0.0 090 / 101016.4 9.0 6.9 8.7
2019-Apr-21 10:00N 60°12' W 000°12'0 0.0 090 / 121017.1 8.1 6.4 8.5
2019-Apr-21 09:00N 60°12' W 000°12'0 0.0 090 / 121017.8 8.2 6.5 8.4
2019-Apr-21 08:00N 60°12' W 000°12'3 3.0 090 / 101019.1 8.1 6.4 8.3
2019-Apr-21 07:00N 60°12' W 000°18'3 1.5 100 / 121020.0 7.9 6.2 8.2
2019-Apr-21 05:00N 60°12' W 000°12'0 0.0 120 / 81021.1 7.7 6.0 8.2
2019-Apr-21 04:00N 60°12' W 000°12'3 3.0 130 / 81022.1 8.0 6.1 8.2
2019-Apr-21 03:00N 60°12' W 000°18'0 0.0 130 / 81023.2 8.0 6.3 8.2
2019-Apr-21 02:00N 60°12' W 000°18'0 0.0 160 / 81024.0 8.0 6.3 8.4
2019-Apr-21 01:00N 60°12' W 000°18'3 3.0 190 / 81025.2 8.1 6.6 8.2
2019-Apr-21 00:00N 60°12' W 000°12'3 3.0 200 / 101026.5 8.5 6.6 8.5
2019-Apr-20 23:00N 60°12' W 000°06'0 0.0 190 / 101026.5 8.5 6.6 8.4
2019-Apr-20 22:00N 60°12' W 000°06'3 3.0 210 / 81027.0 8.4 6.3 8.2
2019-Apr-20 21:00N 60°12' W 000°12'0 0.0 230 / 101027.4 8.5 6.3 8.3
2019-Apr-20 20:00N 60°12' W 000°12'0 0.0 220 / 121027.7 8.6 6.3 8.2
2019-Apr-20 19:00N 60°12' W 000°12'3 3.0 210 / 141028.0 8.6 6.4 8.2
2019-Apr-20 18:00N 60°12' W 000°06'3 3.0 220 / 121028.5 8.9 6.1 8.4
2019-Apr-20 17:00N 60°12' W 000°12'0 0.0 210 / 101028.2 9.1 6.1 8.5
2019-Apr-20 16:00N 60°12' W 000°12'0 0.0 220 / 121028.7 9.5 5.9 8.4
2019-Apr-20 15:00N 60°12' W 000°12'3 3.0 220 / 141028.7 9.5 5.8 8.4
2019-Apr-20 14:00N 60°12' W 000°18'7 6.7 230 / 161028.7 10.5 5.4 8.4
2019-Apr-20 13:00N 60°06' W 000°24'1110.8 240 / 161029.5 12.4 6.2 8.2
2019-Apr-20 12:00N 60°00' W 000°42'1110.8 260 / 161029.2 11.3 6.4 8.0
2019-Apr-20 11:00N 59°54' W 001°00'8 8.5 250 / 191028.7 10.2 6.6 8.0
2019-Apr-20 10:00N 60°00' W 000°48'6 6.0 230 / 191028.5 9.8 7.3 7.9
2019-Apr-20 09:00N 60°00' W 000°36'3 3.0 220 / 121028.5 8.9 6.3 7.9
2019-Apr-20 08:00N 60°00' W 000°30'6 6.0 200 / 161028.4 8.8 6.0 7.9
2019-Apr-20 07:00N 60°00' W 000°18'3 3.0 200 / 161028.2 8.9 5.8 7.9
2019-Apr-20 06:00N 60°00' W 000°12'6 6.0 190 / 191028.4 8.8 5.4 7.9
2019-Apr-20 05:00N 60°00' E 000°00'6 6.0 180 / 251028.0 9.1 5.0 8.0
2019-Apr-20 04:00N 60°00' E 000°12'3 7.1 180 / 231028.2 9.5 4.5 7.9
2019-Apr-20 03:36N 60°00' E 000°18'0 4.9
2019-Apr-20 03:30N 60°00' E 000°18'1 2.8
2019-Apr-20 03:00N 60°00' E 000°21'2494.2
2019-Apr-20 03:00N 60°00' E 000°18'612.4 180 / 231028.7 9.3 4.7 7.7
2019-Apr-20 02:30N 60°00' E 000°30'713.5
2019-Apr-20 02:00N 59°54' E 000°36'6775.9 170 / 231029.5 9.4 4.4 7.7
2019-Apr-20 01:59N 59°60' E 000°39'0 0.1
2019-Apr-20 01:29N 59°60' E 000°39'612.0
2019-Apr-20 01:00N 59°54' E 000°42'63051.0 170 / 211030.2 8.9 4.7 7.7
2019-Apr-20 00:59N 59°60' E 000°43'8 8.7
2019-Apr-20 00:05N 59°60' E 000°59'673.0
2019-Apr-20 00:00N 59°54' E 000°54'61368.4 160 / 211030.7 8.8 4.8 7.8
2019-Apr-19 23:59N 59°60' E 000°59'1 2.5
2019-Apr-19 23:30N 60°00' E 001°01'2 4.6
2019-Apr-19 23:00N 60°00' E 001°06'6 9.9 160 / 191031.7 8.7 4.9 7.8
2019-Apr-19 22:25N 60°00' E 001°17'1 2.0
2019-Apr-19 22:00N 60°00' E 001°19'1691.7
2019-Apr-19 22:00N 60°00' E 001°18'510.6 160 / 191032.4 8.5 4.5 7.7
2019-Apr-19 21:30N 60°00' E 001°28'1 1.5
2019-Apr-19 21:00N 60°00' E 001°30'3261.0 160 / 161033.0 8.5 4.3 7.7
2019-Apr-19 20:59N 60°00' E 001°35'2 3.5
2019-Apr-19 20:29N 59°60' E 001°39'3 5.8
2019-Apr-19 20:00N 60°00' E 001°44'182.6
2019-Apr-19 20:00N 60°00' E 001°42'612.0 150 / 191033.5 8.5 4.4 7.9
2019-Apr-19 19:30N 59°60' E 001°54'0 0.3
2019-Apr-19 19:00N 60°00' E 001°54'21142.2 160 / 171033.5 8.5 4.3 8.0
2019-Apr-19 18:59N 60°00' E 001°58'1 1.9
2019-Apr-19 18:30N 60°00' E 002°00'2 3.9
2019-Apr-19 18:00N 60°00' E 002°04'2633.1
2019-Apr-19 18:00N 60°00' E 002°00'714.2 160 / 171033.7 8.8 4.0 7.9
2019-Apr-19 17:30N 60°00' E 002°14'5 9.8
2019-Apr-19 17:00N 60°00' E 002°24'3238.7
2019-Apr-19 17:00N 60°00' E 002°18'612.7 160 / 161034.2 9.2 3.9 8.4
2019-Apr-19 16:29N 59°60' E 002°31'613.3
2019-Apr-19 16:00N 59°54' E 002°36'1010.5 160 / 161035.0 9.5 3.8 8.6
2019-Apr-19 15:05N 59°60' E 002°51'664.2
2019-Apr-19 15:00N 59°54' E 002°48'6566.0 150 / 161035.7 9.6 3.4 8.3
2019-Apr-19 14:59N 59°60' E 002°51'3 5.3
2019-Apr-19 14:24N 59°60' E 002°57'615.1
2019-Apr-19 14:00N 59°54' E 003°00'632.1 150 / 141036.2 10.0 3.3 8.4
2019-Apr-19 13:48N 59°60' E 003°01'1 2.8
2019-Apr-19 13:29N 59°60' E 003°03'2 4.7
2019-Apr-19 13:00N 59°60' E 003°07'6674.1
2019-Apr-19 13:00N 59°54' E 003°06'713.6 150 / 141036.6 9.5 3.5 8.4
2019-Apr-19 12:30N 60°00' E 003°11'5 9.1
2019-Apr-19 12:00N 59°60' E 003°20'6676.4
2019-Apr-19 12:00N 59°54' E 003°18'613.0 150 / 121037.2 9.2 3.8 8.2
2019-Apr-19 11:30N 60°00' E 003°22'4 8.9
2019-Apr-19 11:00N 59°60' E 003°31'6399.3
2019-Apr-19 11:00N 59°54' E 003°30'713.1 160 / 141037.5 8.9 3.2 8.1
2019-Apr-19 10:30N 60°00' E 003°33'2 4.5
2019-Apr-19 10:00N 60°00' E 003°38'1104.5
2019-Apr-19 10:00N 60°00' E 003°36'2 3.9 150 / 12 8.8 3.4 7.2
2019-Apr-19 09:30N 60°00' E 003°40'1 1.2
2019-Apr-19 09:00N 60°00' E 003°41'3707.4
2019-Apr-19 09:00N 60°00' E 003°36'3 5.2 140 / 141038.5 8.4 3.2 7.1
2019-Apr-19 08:30N 60°00' E 003°41'1 2.2
2019-Apr-19 08:00N 60°00' E 003°43'1107.5
2019-Apr-19 08:00N 60°00' E 003°42'3 6.5 140 / 121037.7 8.4 3.1 6.9
2019-Apr-19 07:30N 60°00' E 003°48'2 3.9
2019-Apr-19 07:00N 60°00' E 003°52'6997.2
2019-Apr-19 07:00N 59°54' E 003°48'917.7 150 / 141037.7 8.1 3.2 6.7
2019-Apr-19 06:30N 60°00' E 004°01'2 4.9
2019-Apr-19 06:00N 60°00' E 004°05'3824.1
2019-Apr-19 06:00N 60°00' E 004°00'511.1 150 / 121037.7 8.3 2.3 7.2
2019-Apr-19 05:30N 60°00' E 004°11'2 3.4
2019-Apr-19 05:00N 60°00' E 004°14'1104.6
2019-Apr-19 05:00N 60°00' E 004°12'4 7.3 160 / 101037.5 8.6 2.4 7.1
2019-Apr-19 04:30N 60°00' E 004°19'1 2.5
2019-Apr-19 04:00N 60°00' E 004°22'2206.9
2019-Apr-19 04:00N 60°00' E 004°18'2 3.0 160 / 121037.2 8.8 1.9 7.1
2019-Apr-19 03:28N 60°00' E 004°21'0 0.6
2019-Apr-19 03:00N 60°00' E 004°22'2155.4
2019-Apr-19 03:00N 60°00' E 004°18'612.7 170 / 141037.4 8.5 2.3 7.0
2019-Apr-19 02:30N 60°00' E 004°31'0 0.8
2019-Apr-19 02:00N 59°60' E 004°31'6412.4
2019-Apr-19 02:00N 59°54' E 004°30'613.0 160 / 81037.4 9.0 0.9 7.4
2019-Apr-19 01:30N 60°00' E 004°34'3 6.9
2019-Apr-19 01:00N 59°60' E 004°41'6543.3
2019-Apr-19 01:00N 59°54' E 004°36'613.2 140 / 81037.7 9.5 0.5 7.6
2019-Apr-19 00:30N 59°60' E 004°41'3 6.9
2019-Apr-19 00:00N 59°60' E 004°48'7428.0
2019-Apr-19 00:00N 59°54' E 004°42'713.4 100 / 41037.9 9.1 2.3 7.8
2019-Apr-18 23:30N 59°60' E 004°48'4 7.8
2019-Apr-18 23:00N 59°60' E 004°56'6636.8
2019-Apr-18 23:00N 59°54' E 004°54'613.1 070 / 41037.8 10.1-1.9 7.0
2019-Apr-18 22:30N 60°00' E 004°57'0 0.4
2019-Apr-18 22:00N 60°00' E 004°57'2102.9
2019-Apr-18 22:00N 60°00' E 004°54'3 6.2 100 / 41037.7 10.0-2.1 7.0
2019-Apr-18 21:29N 59°57' E 004°58'3 6.8
2019-Apr-18 21:00N 59°54' E 004°58'2244.6
2019-Apr-18 21:00N 59°54' E 004°54'611.5 070 / 21037.5 11.3-3.6 7.6
2019-Apr-18 20:30N 59°49' E 004°59'510.5
2019-Apr-18 20:00N 59°44' E 005°00'2127.5
2019-Apr-18 20:00N 59°42' E 005°00'3 7.1 150 / 21037.4 11.4-4.1 7.3
2019-Apr-18 19:30N 59°39' E 005°01'510.6
2019-Apr-18 19:00N 59°33' E 005°02'3284.2
2019-Apr-18 19:00N 59°30' E 005°00'3 7.0 130 / 41037.0 10.6-2.4 7.0
2019-Apr-18 18:31N 59°29' E 005°06'3 6.8
2019-Apr-18 18:00N 59°27' E 005°11'4341.0
2019-Apr-18 18:00N 59°24' E 005°06'612.5 230 / 41036.7 11.8-4.0 6.9
2019-Apr-18 17:31N 59°23' E 005°18'510.0
2019-Apr-18 17:00N 59°18' E 005°20'6415.9
2019-Apr-18 17:00N 59°12' E 005°18'2 3.7 200 / 101036.5 11.5 0.9 7.7
2019-Apr-18 16:30N 59°13' E 005°21'5 9.3
2019-Apr-18 16:00N 59°08' E 005°24'4259.3
2019-Apr-18 16:00N 59°06' E 005°18'714.5 240 / 61036.8 11.1 0.1 7.6
2019-Apr-18 15:30N 59°06' E 005°32'5 9.9
2019-Apr-18 15:01N 59°02' E 005°37'2118.4
2019-Apr-18 15:00N 59°00' E 005°36'4 7.2 250 / 101036.7 12.0-1.9 7.7
2019-Apr-18 14:30N 58°59' E 005°43'510.2
2019-Apr-18 14:00N 58°54' E 005°42'4194.4 280 / 81036.5 14.7-3.1 7.7
2019-Apr-18 13:58N 58°58' E 005°44'0 0.0
2019-Apr-18 13:30N 58°58' E 005°44'1 2.0
2019-Apr-18 13:00N 58°59' E 005°43'5330.7
2019-Apr-18 13:00N 58°54' E 005°42'918.8 330 / 81036.7 14.9-3.1 7.4
2019-Apr-18 12:30N 59°02' E 005°35'510.2
2019-Apr-18 12:00N 59°06' E 005°29'2182.6
2019-Apr-18 12:00N 59°06' E 005°24'3 7.0 060 / 101036.9 11.8-1.4 6.8
2019-Apr-18 11:30N 59°07' E 005°18'510.6
2019-Apr-18 11:00N 59°09' E 005°08'3186.1
2019-Apr-18 11:00N 59°06' E 005°06'816.4 130 / 12 12.5-3.3 7.1
2019-Apr-18 10:30N 59°14' E 005°02'3 6.7
2019-Apr-18 10:00N 59°17' E 005°02'5391.6
2019-Apr-18 10:00N 59°12' E 005°00'510.4 130 / 101037.0 12.5-3.6 6.8
2019-Apr-18 09:30N 59°17' E 004°59'2 3.0
2019-Apr-18 09:00N 59°17' E 004°56'5535.6
2019-Apr-18 09:00N 59°12' E 004°54'715.2 120 / 161036.9 10.1-0.1 6.7
2019-Apr-18 08:30N 59°19' E 004°51'2 4.4
2019-Apr-18 08:00N 59°17' E 004°50'5329.2
2019-Apr-18 08:00N 59°12' E 004°48'510.5 100 / 141036.5 9.0 0.7 6.7
2019-Apr-18 07:30N 59°17' E 004°50'4 7.1
2019-Apr-18 07:00N 59°17' E 004°43'5397.3
2019-Apr-18 07:00N 59°12' E 004°42'510.5 100 / 161035.7 8.3-0.0 6.6
2019-Apr-18 06:30N 59°17' E 004°40'5 9.2
2019-Apr-18 06:00N 59°17' E 004°31'5704.4
2019-Apr-18 06:00N 59°12' E 004°30'510.7 110 / 141035.7 7.9-0.0 6.9
2019-Apr-18 05:30N 59°17' E 004°30'0 0.4
2019-Apr-18 05:00N 59°17' E 004°30'61320.9
2019-Apr-18 05:00N 59°12' E 004°24'510.7 110 / 161035.2 7.8-0.2 6.9
2019-Apr-18 04:30N 59°17' E 004°23'2 3.1
2019-Apr-18 04:00N 59°17' E 004°20'5325.8
2019-Apr-18 04:00N 59°12' E 004°18'611.3 120 / 141034.7 7.7 1.6 6.8
2019-Apr-18 03:30N 59°17' E 004°14'2 3.2
2019-Apr-18 03:00N 59°17' E 004°11'62663.2
2019-Apr-18 03:00N 59°12' E 004°06'611.5 120 / 141034.7 7.7 1.4 6.6
2019-Apr-18 02:30N 59°17' E 004°11'1 1.8
2019-Apr-18 02:00N 59°17' E 004°09'5420.5
2019-Apr-18 02:00N 59°12' E 004°06'510.9 120 / 161034.7 7.8 1.7 6.5
2019-Apr-18 01:30N 59°17' E 004°08'1 1.7
2019-Apr-18 01:00N 59°17' E 004°06'52644.5
2019-Apr-18 01:00N 59°12' E 004°06'511.1 120 / 141034.5 7.5 2.6 6.7
2019-Apr-18 00:30N 59°17' E 004°02'1 2.9
2019-Apr-18 00:00N 59°17' E 003°59'6569.7
2019-Apr-18 00:00N 59°12' E 003°54'510.3 130 / 161034.2 7.7 2.6 7.0
2019-Apr-17 23:30N 59°17' E 003°55'2 3.7
2019-Apr-17 23:00N 59°17' E 003°59'6452.1
2019-Apr-17 23:00N 59°12' E 003°54'511.0 140 / 161034.0 8.0 1.9 7.1
2019-Apr-17 22:30N 59°17' E 003°55'2 3.8
2019-Apr-17 22:00N 59°17' E 003°52'6557.4
2019-Apr-17 22:00N 59°12' E 003°48'511.2 140 / 191033.4 8.6 0.8 7.1
2019-Apr-17 21:30N 59°17' E 003°51'1 1.4
2019-Apr-17 21:00N 59°17' E 003°50'4 8.8
2019-Apr-17 20:30N 59°17' E 003°41'1 2.1
2019-Apr-17 20:00N 59°17' E 003°39'5336.6
2019-Apr-17 20:00N 59°12' E 003°36'511.0 140 / 211032.0 8.8 1.0 7.5
2019-Apr-17 19:30N 59°17' E 003°32'0 0.3
2019-Apr-17 19:00N 59°17' E 003°32'51148.7
2019-Apr-17 19:00N 59°12' E 003°30'612.5 140 / 231031.5 8.5 0.7 7.1
2019-Apr-17 18:30N 59°17' E 003°23'1 2.7
2019-Apr-17 18:00N 59°18' E 003°21'6572.8
2019-Apr-17 18:00N 59°12' E 003°18'611.4 140 / 251030.7 8.5 0.7 7.9
2019-Apr-17 17:30N 59°18' E 003°17'2 3.7
2019-Apr-17 17:00N 59°17' E 003°13'52707.9
2019-Apr-17 17:00N 59°12' E 003°12'510.6 140 / 271030.5 8.7 0.5 8.1
2019-Apr-17 16:30N 59°17' E 003°13'0 0.9
2019-Apr-17 16:00N 59°17' E 003°12'5401.8
2019-Apr-17 16:00N 59°12' E 003°12'613.2 150 / 271030.2 8.7-0.0 7.9
2019-Apr-17 15:30N 59°17' E 003°04'610.9
2019-Apr-17 15:00N 59°12' E 003°00'5136.7 140 / 251030.2 8.5 0.5 7.5
2019-Apr-17 14:57N 59°17' E 002°60'3 6.2
2019-Apr-17 14:30N 59°17' E 002°54'611.8
2019-Apr-17 14:00N 59°12' E 002°48'516.5 140 / 231030.2 8.0 1.7 7.6
2019-Apr-17 13:41N 59°17' E 002°45'710.2
2019-Apr-17 13:00N 59°12' E 002°36'3 3.1 140 / 231030.3 7.7 2.6 7.4
2019-Apr-17 12:00N 59°12' E 002°30'3 3.1 140 / 231030.3 7.5 2.4 7.3
2019-Apr-17 11:00N 59°12' E 002°24'6 6.1 130 / 231030.1 7.4 2.2 7.4
2019-Apr-17 10:00N 59°12' E 002°12'6 6.1 120 / 191030.0 7.6 2.9 7.2
2019-Apr-17 09:00N 59°12' E 002°00'6 6.1 120 / 191029.8 7.5 2.9 7.3
2019-Apr-17 08:00N 59°12' E 001°48'6 6.1 110 / 171029.2 7.2 2.5 7.3
2019-Apr-17 07:00N 59°12' E 001°36'9 9.2 110 / 171029.0 7.1 1.8 7.3
2019-Apr-17 06:00N 59°12' E 001°18'0 0.0 110 / 191028.8 7.1 0.6 7.4
2019-Apr-17 05:00N 59°12' E 001°18'9 9.2 100 / 191028.5 7.0 0.5 7.4
2019-Apr-17 04:00N 59°12' E 001°00'6 6.1 100 / 211028.2 6.9 0.6 7.4
2019-Apr-17 03:00N 59°12' E 000°48'6 6.1 110 / 231028.2 7.2 0.4 7.4
2019-Apr-17 02:00N 59°12' E 000°36'3 3.1 120 / 211028.5 7.2-0.0 7.5
2019-Apr-17 01:00N 59°12' E 000°30'6 6.1 120 / 211028.4 7.0 0.8 7.4
2019-Apr-17 00:00N 59°12' E 000°18'6 6.1 120 / 191028.5 7.0 0.7 7.5
2019-Apr-16 23:00N 59°12' E 000°06'3 3.1 130 / 191028.5 6.7-0.0 7.4
2019-Apr-16 22:00N 59°12' E 000°00'0 0.0 120 / 231028.5 6.6-0.0 7.5
2019-Apr-16 21:00N 59°12' E 000°00'9 9.2 120 / 251028.2 6.8-0.2 7.4
2019-Apr-16 20:00N 59°12' W 000°18'6 6.1 130 / 191028.5 7.0 0.7 7.5
2019-Apr-16 19:00N 59°12' W 000°30'3 3.1 140 / 171027.7 7.2 2.3 7.5
2019-Apr-16 18:00N 59°12' W 000°36'9 9.2 130 / 211027.1 7.3 2.2 7.5
2019-Apr-16 17:00N 59°12' W 000°54'6 6.1 130 / 231027.0 7.4 2.2 7.6
2019-Apr-16 16:00N 59°12' W 001°06'6 6.1 120 / 271026.7 7.6 1.9 7.6
2019-Apr-16 15:00N 59°12' W 001°18'3 3.1 130 / 251026.8 7.6 1.6 7.8
2019-Apr-16 14:00N 59°12' W 001°24'6 6.1 130 / 271026.5 7.7 1.3 7.8
2019-Apr-16 13:00N 59°12' W 001°36'6 6.1 130 / 271026.5 7.7 0.9 7.9
2019-Apr-16 12:00N 59°12' W 001°48'3 3.1 130 / 271025.9 7.5 1.8 7.9
2019-Apr-16 11:00N 59°12' W 001°54'6 6.1 130 / 27 7.5 1.2 8.0
2019-Apr-16 10:00N 59°12' W 002°06'3 3.1 130 / 271025.5 7.4 1.8 7.8
2019-Apr-16 09:00N 59°12' W 002°12'1212.4 130 / 311025.3 7.5 1.5 7.8
2019-Apr-16 08:00N 59°24' W 002°06'6 6.1 130 / 291025.5 7.4 1.5 7.9
2019-Apr-16 07:00N 59°24' W 001°54'0 0.0 120 / 291025.7 7.2 1.9 7.9
2019-Apr-16 06:00N 59°24' W 001°54'7 6.7 130 / 291025.5 7.1 2.0 7.9
2019-Apr-16 05:00N 59°30' W 001°48'7 6.7 130 / 291025.5 7.0 1.6 7.9
2019-Apr-16 04:00N 59°36' W 001°42'6 6.1 130 / 251026.0 6.9 1.6 7.8
2019-Apr-16 03:00N 59°36' W 001°30'9 4.3 130 / 331026.7 6.7 0.6 7.8
2019-Apr-16 01:00N 59°42' W 001°18'9 8.5 120 / 311026.8 6.7-0.2 7.6
2019-Apr-16 00:00N 59°48' W 001°06'7 3.4 120 / 291027.2 6.9 0.4 7.5
2019-Apr-15 22:00N 59°54' W 001°00'6 6.0 120 / 291027.9 6.9 2.0 7.6
2019-Apr-15 21:00N 60°00' W 001°00'7 6.7 120 / 291028.0 7.0 2.2 7.6
2019-Apr-15 20:00N 60°06' W 001°06'0 0.0 120 / 251027.7 7.0 1.9 7.6
2019-Apr-15 19:00N 60°06' W 001°06'0 0.0 120 / 231028.0 7.0 2.1 7.7
2019-Apr-15 18:00N 60°06' W 001°06'0 0.0 120 / 251028.1 7.2 1.7 7.9
2019-Apr-15 17:00N 60°06' W 001°06'6 6.0 120 / 251028.0 7.4 1.7 7.6
2019-Apr-15 16:00N 60°06' W 000°54'8 8.5 120 / 271029.0 7.2 2.5 7.7
2019-Apr-15 15:00N 60°12' W 000°42'31 7.6 120 / 291029.5 7.2 2.5 7.9
2019-Apr-15 11:00N 60°42' W 000°30'3 2.9 120 / 251032.5 7.0 1.0 8.5
2019-Apr-15 10:00N 60°42' W 000°24'6 5.9 130 / 271032.5 6.7 0.3 8.3
2019-Apr-15 09:00N 60°42' W 000°12'6 5.9 130 / 231033.8 6.7-0.0 8.3
2019-Apr-15 08:00N 60°42' E 000°00'6 5.9 130 / 231033.7 7.0-0.4 8.3
2019-Apr-15 07:00N 60°42' E 000°12'3 2.9 130 / 231033.7 6.7-0.6 8.3
2019-Apr-15 06:00N 60°42' E 000°18'6 5.9 140 / 191034.0 6.7-1.0 8.4
2019-Apr-15 05:00N 60°42' E 000°30'9 8.8 140 / 19 6.2-1.6 8.3
2019-Apr-15 04:00N 60°42' E 000°48'3 2.9 120 / 171034.9 6.0-1.2 8.2
2019-Apr-15 03:00N 60°42' E 000°54'6 5.9 140 / 161035.4 6.0-1.2 8.3
2019-Apr-15 02:00N 60°42' E 001°06'15 7.3 150 / 141035.7 6.0-1.3 8.1
2019-Apr-15 00:00N 60°42' E 001°36'9 8.8 150 / 101036.2 6.3-1.8 7.9
2019-Apr-14 23:00N 60°42' E 001°54'   180 / 41036.4 6.0-2.0 7.9
Track history (hours):
 
Tides and Currents Weather Stations Pressure Air Temp Water Temp Dewpoint Dewpoint Depression Visibility Wind Speed Wind Dir Waves Ship Positions

Oceanographic research ship Johan Hjort (Norway)

Detailed information on ship capabilities available from University of Delaware's Ocean Information Center and ARCUS's ALIAS (Arctic Logistics Information and Support) project.

Last reported at 2019-Apr-24 22:30 UTC. Time now 2019-Apr-24 22:40 UTC.
Position N 58°52' E 005°31'.

MMSI: 257139000.

Date/timePositionNaut miles runAvg speedWind from/ knotsBaromVisibWave heightAir tempDewpointWater temp
2019-Apr-24 22:30N 58°52' E 005°31'510.3
2019-Apr-24 22:00N 58°57' E 005°33'4251.6
2019-Apr-24 22:00N 58°54' E 005°30'817.5 100 / 251006.7 13.0 4.9 7.4
2019-Apr-24 21:30N 59°02' E 005°32'510.2
2019-Apr-24 21:00N 59°07' E 005°31'2115.9
2019-Apr-24 21:00N 59°06' E 005°30'511.1 090 / 161008.2 13.7 2.1 7.8
2019-Apr-24 20:30N 59°11' E 005°35'1 2.7
2019-Apr-24 20:00N 59°12' E 005°37'6412.7
2019-Apr-24 20:00N 59°06' E 005°36'510.5 100 / 231008.3 12.5 2.1 7.9
2019-Apr-24 19:31N 59°11' E 005°36'1 1.6
2019-Apr-24 19:00N 59°11' E 005°35'6383.8
2019-Apr-24 19:00N 59°06' E 005°30'713.9 100 / 191008.4 12.8 2.2 7.9
2019-Apr-24 18:30N 59°12' E 005°35'0 0.7
2019-Apr-24 18:00N 59°12' E 005°35'6453.9
2019-Apr-24 18:00N 59°06' E 005°30'612.1 110 / 251008.1 14.0 0.3 7.8
2019-Apr-24 17:30N 59°11' E 005°34'1 1.1
2019-Apr-24 17:01N 59°12' E 005°35'6373.8
2019-Apr-24 17:00N 59°06' E 005°30'4 9.2 090 / 211007.3 14.0 0.1 7.9
2019-Apr-24 16:30N 59°10' E 005°34'510.4
2019-Apr-24 16:00N 59°05' E 005°33'5445.2
2019-Apr-24 16:00N 59°00' E 005°30'510.6 110 / 251007.6 14.0 0.2 7.9
2019-Apr-24 15:30N 59°01' E 005°40'3 6.1
2019-Apr-24 15:01N 58°58' E 005°44'4260.3
2019-Apr-24 15:00N 58°54' E 005°42'4 8.2 120 / 141007.7 16.2-1.4 7.9
2019-Apr-24 14:27N 58°58' E 005°44'0 0.0
2019-Apr-24 14:00N 58°58' E 005°44'41467.1
2019-Apr-24 14:00N 58°54' E 005°42'4 9.0 110 / 121008.0 16.6-1.5 8.2
2019-Apr-24 13:30N 58°58' E 005°44'0 0.0
2019-Apr-24 13:00N 58°58' E 005°44'41793.1
2019-Apr-24 13:00N 58°54' E 005°42'4 9.0 100 / 101007.7 17.1-2.1 8.2
2019-Apr-24 12:30N 58°58' E 005°44'0 0.0
2019-Apr-24 12:00N 58°58' E 005°44'42017.3
2019-Apr-24 12:00N 58°54' E 005°42'4 8.2 100 / 101008.3 17.3-3.4 7.9
2019-Apr-24 11:27N 58°58' E 005°44'4 9.9
2019-Apr-24 11:00N 58°54' E 005°42'492.2 100 / 161009.2 17.3-2.9 8.2
2019-Apr-24 10:57N 58°58' E 005°44'0 0.0
2019-Apr-24 10:30N 58°58' E 005°44'4 8.9
2019-Apr-24 10:00N 58°54' E 005°42'491.7 080 / 61009.2 16.3-2.2 8.0
2019-Apr-24 09:57N 58°58' E 005°44'0 0.0
2019-Apr-24 09:30N 58°58' E 005°44'4 8.9
2019-Apr-24 09:00N 58°54' E 005°42'491.2 090 / 61010.1 15.6-1.5 8.0
2019-Apr-24 08:57N 58°58' E 005°44'0 0.0
2019-Apr-24 08:30N 58°58' E 005°44'0 0.0
2019-Apr-24 08:00N 58°58' E 005°44'0 0.0
2019-Apr-24 07:26N 58°58' E 005°44'410.0
2019-Apr-24 07:00N 58°54' E 005°42'48069.1 090 / 41010.9 14.3-4.5 8.2
2019-Apr-24 06:59N 58°58' E 005°44'0 0.0
2019-Apr-24 06:29N 58°58' E 005°44'4 9.0
2019-Apr-24 06:00N 58°54' E 005°42'45379.5 100 / 41011.0 13.0-3.3 8.3
2019-Apr-24 05:59N 58°58' E 005°44'0 0.0
2019-Apr-24 05:29N 58°58' E 005°44'4 9.0
2019-Apr-24 05:00N 58°54' E 005°42'43231.9 080 / 41011.1 12.0-3.7 8.2
2019-Apr-24 04:59N 58°58' E 005°44'0 0.0
2019-Apr-24 04:29N 58°58' E 005°44'4 9.0
2019-Apr-24 04:00N 58°54' E 005°42'42689.7 080 / 61011.8 12.4-4.3 8.1
2019-Apr-24 03:59N 58°58' E 005°44'0 0.0
2019-Apr-24 03:29N 58°58' E 005°44'4 9.0
2019-Apr-24 03:00N 58°54' E 005°42'42017.3 100 / 41012.5 12.5-4.1 8.0
2019-Apr-24 02:59N 58°58' E 005°44'0 0.0
2019-Apr-24 02:29N 58°58' E 005°44'4 9.0
2019-Apr-24 02:00N 58°54' E 005°42'41613.8 060 / 41013.2 13.0-4.6 8.2
2019-Apr-24 01:59N 58°58' E 005°44'0 0.0
2019-Apr-24 01:29N 58°58' E 005°44'4 9.0
2019-Apr-24 01:00N 58°54' E 005°42'41467.1 100 / 21013.6 13.5-5.1 7.9
2019-Apr-24 00:59N 58°58' E 005°44'0 0.0
2019-Apr-24 00:29N 58°58' E 005°44'4 9.0
2019-Apr-24 00:00N 58°54' E 005°42'483.6 090 / 61014.7 14.1-5.6 7.9
2019-Apr-23 23:56N 58°58' E 005°44'0 0.0
2019-Apr-23 23:29N 58°58' E 005°44'4 9.0
2019-Apr-23 23:00N 58°54' E 005°42'41152.8 110 / 41014.5 15.0-5.9 8.6
2019-Apr-23 22:59N 58°58' E 005°44'0 0.0
2019-Apr-23 22:29N 58°58' E 005°44'4 9.0
2019-Apr-23 22:00N 58°54' E 005°42'41008.7 120 / 81014.8 16.0-7.0 8.2
2019-Apr-23 21:59N 58°58' E 005°44'0 0.0
2019-Apr-23 21:29N 58°58' E 005°44'4 9.1
2019-Apr-23 21:00N 58°54' E 005°42'4949.3 110 / 101014.7 16.1-7.5 8.0
2019-Apr-23 20:59N 58°58' E 005°44'0 0.0
2019-Apr-23 20:29N 58°58' E 005°44'4 9.1
2019-Apr-23 20:00N 58°54' E 005°42'4849.4 110 / 61015.0 16.3-7.4 8.1
2019-Apr-23 19:59N 58°58' E 005°44'0 0.0
2019-Apr-23 19:29N 58°58' E 005°44'4 9.1
2019-Apr-23 19:00N 58°54' E 005°42'4768.5 110 / 101014.7 16.6-7.8 8.4
2019-Apr-23 18:59N 58°58' E 005°44'0 0.0
2019-Apr-23 18:29N 58°58' E 005°44'4 9.1
2019-Apr-23 18:00N 58°54' E 005°42'4701.7 100 / 81014.3 17.4-8.6 8.3
2019-Apr-23 17:59N 58°58' E 005°44'0 0.0
2019-Apr-23 17:29N 58°58' E 005°44'1 1.3
2019-Apr-23 17:00N 58°59' E 005°43'5414.7
2019-Apr-23 17:00N 58°54' E 005°42'713.5 100 / 191014.1 16.6-7.1 8.0
2019-Apr-23 16:30N 59°00' E 005°40'2 4.5
2019-Apr-23 16:01N 59°02' E 005°37'2115.2
2019-Apr-23 16:00N 59°00' E 005°36'713.8 100 / 251014.2 15.5-5.0 7.6
2019-Apr-23 15:30N 59°06' E 005°30'611.0
2019-Apr-23 15:00N 59°07' E 005°20'170.0
2019-Apr-23 15:00N 59°06' E 005°18'5 9.5 100 / 251014.6 13.7 0.1 7.7
2019-Apr-23 14:30N 59°08' E 005°10'510.8
2019-Apr-23 14:00N 59°13' E 005°08'196.9
2019-Apr-23 14:00N 59°12' E 005°06'713.7 100 / 271014.6 17.0-1.8 7.4
2019-Apr-23 13:30N 59°19' E 005°07'611.0
2019-Apr-23 13:00N 59°24' E 005°08'174.6
2019-Apr-23 13:00N 59°24' E 005°06'4 8.7 110 / 271015.6 16.0-1.1 7.4
2019-Apr-23 12:30N 59°28' E 005°04'4 8.8
2019-Apr-23 12:00N 59°32' E 004°59'3222.2
2019-Apr-23 12:00N 59°30' E 004°54'714.9 130 / 251016.2 13.7 1.0 7.3
2019-Apr-23 11:30N 59°37' E 004°59'510.8
2019-Apr-23 11:00N 59°42' E 004°57'2111.5
2019-Apr-23 11:00N 59°42' E 004°54'510.3 140 / 171016.5 13.0 2.4 7.6
2019-Apr-23 10:30N 59°47' E 004°52'510.8
2019-Apr-23 10:00N 59°51' E 004°45'3366.4
2019-Apr-23 10:00N 59°48' E 004°42'714.4 130 / 191016.7 11.6 2.4 7.6
2019-Apr-23 09:30N 59°54' E 004°36'510.9
2019-Apr-23 09:00N 59°57' E 004°27'4418.7
2019-Apr-23 09:00N 59°54' E 004°24'713.1 120 / 211016.7 10.8 2.8 7.0
2019-Apr-23 08:29N 59°60' E 004°16'510.8
2019-Apr-23 08:00N 60°00' E 004°06'169.8 120 / 211016.4 10.4 2.7 7.5
2019-Apr-23 07:58N 60°01' E 004°06'510.6
2019-Apr-23 07:30N 60°03' E 003°57'611.1
2019-Apr-23 07:00N 60°05' E 003°46'5438.3
2019-Apr-23 07:00N 60°00' E 003°42'714.2 130 / 211016.1 9.8 2.4 7.2
2019-Apr-23 06:29N 60°06' E 003°35'510.4
2019-Apr-23 06:00N 60°07' E 003°25'1100.5
2019-Apr-23 06:00N 60°06' E 003°24'2 3.9 130 / 231015.4 10.0 2.6 8.6
2019-Apr-23 05:30N 60°07' E 003°21'4 7.9
2019-Apr-23 05:00N 60°08' E 003°14'2404.5
2019-Apr-23 05:00N 60°06' E 003°12'4 9.1 130 / 271015.1 10.8 2.4 8.3
2019-Apr-23 04:30N 60°09' E 003°06'3 5.8
2019-Apr-23 04:00N 60°11' E 003°01'5399.3
2019-Apr-23 04:00N 60°06' E 003°00'611.2 140 / 251015.1 10.3 2.9 8.4
2019-Apr-23 03:28N 60°12' E 002°58'2 4.6
2019-Apr-23 03:00N 60°14' E 002°57'3 6.0
2019-Apr-23 02:29N 60°17' E 002°55'2 4.8
2019-Apr-23 02:00N 60°18' E 002°51'2271.3
2019-Apr-23 02:00N 60°18' E 002°48'0 0.9 140 / 271015.6 11.2 1.8 8.2
2019-Apr-23 01:30N 60°18' E 002°47'815.9
2019-Apr-23 01:00N 60°12' E 002°36'63106.2 150 / 251015.6 10.5 3.3 8.3
2019-Apr-23 00:59N 60°17' E 002°42'2 3.2
2019-Apr-23 00:30N 60°18' E 002°39'3 6.5
2019-Apr-23 00:00N 60°21' E 002°39'2 4.3
2019-Apr-22 23:30N 60°23' E 002°39'2 3.1
2019-Apr-22 23:00N 60°23' E 002°36'610501.9
2019-Apr-22 23:00N 60°18' E 002°30'4 9.1 150 / 171015.3 10.2 3.7 8.3
2019-Apr-22 22:30N 60°22' E 002°31'4 7.5
2019-Apr-22 22:00N 60°24' E 002°24'31291.1 160 / 191015.1 10.3 3.3 8.3
2019-Apr-22 21:59N 60°24' E 002°30'3 5.3
2019-Apr-22 21:30N 60°24' E 002°25'916.8
2019-Apr-22 21:00N 60°18' E 002°12'5672.4 150 / 211015.3 10.1 3.8 8.3
2019-Apr-22 20:59N 60°23' E 002°15'4 9.0
2019-Apr-22 20:30N 60°22' E 002°07'4 9.0
2019-Apr-22 20:00N 60°21' E 001°58'3358.4
2019-Apr-22 20:00N 60°18' E 001°54'2 3.9 150 / 231015.0 9.6 4.9 8.1
2019-Apr-22 19:29N 60°18' E 001°50'1 2.3
2019-Apr-22 19:00N 60°18' E 001°48'2226.1 150 / 251014.5 9.2 5.0 8.0
2019-Apr-22 18:59N 60°20' E 001°49'1 2.3
2019-Apr-22 18:30N 60°21' E 001°49'713.9
2019-Apr-22 18:00N 60°18' E 001°36'9 8.9 150 / 211013.9 9.1 5.3 8.1
2019-Apr-22 17:00N 60°18' E 001°18'1 5.1 150 / 161013.7 9.0 5.2 8.2
2019-Apr-22 16:50N 60°18' E 001°20'7 9.0
2019-Apr-22 16:06N 60°17' E 001°07'655.2
2019-Apr-22 16:00N 60°12' E 001°00'4 7.0 140 / 211013.2 9.3 5.2 8.3
2019-Apr-22 15:23N 60°15' E 000°55'512.5
2019-Apr-22 15:00N 60°12' E 000°48'635.9 150 / 211013.3 9.3 5.2 8.2
2019-Apr-22 14:50N 60°18' E 000°52'0 0.8
2019-Apr-22 14:24N 60°18' E 000°51'717.8
2019-Apr-22 14:00N 60°12' E 000°42'652.1 150 / 211013.1 9.2 4.3 8.3
2019-Apr-22 13:53N 60°18' E 000°43'4 8.9
2019-Apr-22 13:28N 60°18' E 000°36'816.7
2019-Apr-22 13:00N 60°12' E 000°24'536.8 150 / 231012.8 9.5 3.6 8.2
2019-Apr-22 12:51N 60°17' E 000°25'7 8.7
2019-Apr-22 12:02N 60°16' E 000°11'5115.7
2019-Apr-22 12:00N 60°12' E 000°06'5128.2 160 / 271011.9 10.0 3.6 8.4
2019-Apr-22 11:57N 60°16' E 000°09'3 6.3
2019-Apr-22 11:29N 60°16' E 000°03'4 8.1
2019-Apr-22 11:00N 60°12' E 000°00'327.4 160 / 251011.7 9.5 4.3 8.3
2019-Apr-22 10:53N 60°15' W 000°01'2 4.6
2019-Apr-22 10:30N 60°14' W 000°05'2 4.5
2019-Apr-22 10:00N 60°12' W 000°06'3 3.0 160 / 251010.8 9.4 4.3 8.3
2019-Apr-22 09:00N 60°12' W 000°12'0 0.0 160 / 291010.7 9.3 4.1 8.1
2019-Apr-22 08:00N 60°12' W 000°12'3 7.6 160 / 271010.3 9.4 4.0 8.4
2019-Apr-22 07:35N 60°15' W 000°11'4 6.9
2019-Apr-22 07:00N 60°12' W 000°06'5 9.9 160 / 291010.2 9.4 3.8 8.3
2019-Apr-22 06:28N 60°16' W 000°12'4 8.7
2019-Apr-22 06:00N 60°12' W 000°12'31406.4 160 / 251009.8 9.3 4.1 8.3
2019-Apr-22 05:59N 60°15' W 000°14'3 3.4
2019-Apr-22 05:00N 60°12' W 000°18'3 3.0 170 / 271009.7 9.3 4.9 8.3
2019-Apr-22 04:00N 60°12' W 000°12'0 0.0 170 / 271009.2 9.3 5.2 8.3
2019-Apr-22 03:00N 60°12' W 000°12'3 1.5 170 / 251009.5 9.4 5.3 8.3
2019-Apr-22 01:00N 60°12' W 000°06'3 3.0 170 / 231009.1 9.6 5.6 8.6
2019-Apr-22 00:00N 60°12' W 000°12'0 0.0 170 / 251009.2 9.6 5.8 8.6
2019-Apr-21 23:00N 60°12' W 000°12'3 3.0 170 / 211009.3 9.7 6.1 8.3
2019-Apr-21 22:00N 60°12' W 000°06'6 6.0 160 / 211010.0 9.7 6.4 8.5
2019-Apr-21 21:00N 60°12' W 000°18'3 3.0 160 / 231010.1 9.7 6.4 8.3
2019-Apr-21 20:00N 60°12' W 000°12'0 0.0 160 / 191011.0 9.6 6.7 8.5
2019-Apr-21 19:00N 60°12' W 000°12'3 3.0 160 / 161011.2 9.0 6.8 8.6
2019-Apr-21 18:00N 60°12' W 000°06'0 0.0 150 / 171011.2 8.9 6.9 8.6
2019-Apr-21 17:00N 60°12' W 000°06'6 6.0 140 / 161011.8 9.1 7.1 8.7
2019-Apr-21 16:00N 60°12' W 000°18'3 3.0 150 / 12812.2 8.9 6.8 8.4
2019-Apr-21 15:00N 60°12' W 000°12'3 3.0 160 / 101013.7 8.8 6.9 8.5
2019-Apr-21 14:00N 60°12' W 000°18'3 3.0 160 / 61014.5 8.8 6.7 8.5
2019-Apr-21 13:00N 60°12' W 000°12'3 3.0 150 / 121015.0 8.5 6.5 8.7
2019-Apr-21 12:00N 60°12' W 000°06'3 3.0 130 / 101016.1 8.5 6.3 8.6
2019-Apr-21 11:00N 60°12' W 000°12'0 0.0 090 / 101016.4 9.0 6.9 8.7
2019-Apr-21 10:00N 60°12' W 000°12'0 0.0 090 / 121017.1 8.1 6.4 8.5
2019-Apr-21 09:00N 60°12' W 000°12'0 0.0 090 / 121017.8 8.2 6.5 8.4
2019-Apr-21 08:00N 60°12' W 000°12'3 3.0 090 / 101019.1 8.1 6.4 8.3
2019-Apr-21 07:00N 60°12' W 000°18'3 1.5 100 / 121020.0 7.9 6.2 8.2
2019-Apr-21 05:00N 60°12' W 000°12'0 0.0 120 / 81021.1 7.7 6.0 8.2
2019-Apr-21 04:00N 60°12' W 000°12'3 3.0 130 / 81022.1 8.0 6.1 8.2
2019-Apr-21 03:00N 60°12' W 000°18'0 0.0 130 / 81023.2 8.0 6.3 8.2
2019-Apr-21 02:00N 60°12' W 000°18'0 0.0 160 / 81024.0 8.0 6.3 8.4
2019-Apr-21 01:00N 60°12' W 000°18'3 3.0 190 / 81025.2 8.1 6.6 8.2
2019-Apr-21 00:00N 60°12' W 000°12'3 3.0 200 / 101026.5 8.5 6.6 8.5
2019-Apr-20 23:00N 60°12' W 000°06'0 0.0 190 / 101026.5 8.5 6.6 8.4
2019-Apr-20 22:00N 60°12' W 000°06'3 3.0 210 / 81027.0 8.4 6.3 8.2
2019-Apr-20 21:00N 60°12' W 000°12'0 0.0 230 / 101027.4 8.5 6.3 8.3
2019-Apr-20 20:00N 60°12' W 000°12'0 0.0 220 / 121027.7 8.6 6.3 8.2
2019-Apr-20 19:00N 60°12' W 000°12'3 3.0 210 / 141028.0 8.6 6.4 8.2
2019-Apr-20 18:00N 60°12' W 000°06'3 3.0 220 / 121028.5 8.9 6.1 8.4
2019-Apr-20 17:00N 60°12' W 000°12'0 0.0 210 / 101028.2 9.1 6.1 8.5
2019-Apr-20 16:00N 60°12' W 000°12'0 0.0 220 / 121028.7 9.5 5.9 8.4
2019-Apr-20 15:00N 60°12' W 000°12'3 3.0 220 / 141028.7 9.5 5.8 8.4
2019-Apr-20 14:00N 60°12' W 000°18'7 6.7 230 / 161028.7 10.5 5.4 8.4
2019-Apr-20 13:00N 60°06' W 000°24'1110.8 240 / 161029.5 12.4 6.2 8.2
2019-Apr-20 12:00N 60°00' W 000°42'1110.8 260 / 161029.2 11.3 6.4 8.0
2019-Apr-20 11:00N 59°54' W 001°00'8 8.5 250 / 191028.7 10.2 6.6 8.0
2019-Apr-20 10:00N 60°00' W 000°48'6 6.0 230 / 191028.5 9.8 7.3 7.9
2019-Apr-20 09:00N 60°00' W 000°36'3 3.0 220 / 121028.5 8.9 6.3 7.9
2019-Apr-20 08:00N 60°00' W 000°30'6 6.0 200 / 161028.4 8.8 6.0 7.9
2019-Apr-20 07:00N 60°00' W 000°18'3 3.0 200 / 161028.2 8.9 5.8 7.9
2019-Apr-20 06:00N 60°00' W 000°12'6 6.0 190 / 191028.4 8.8 5.4 7.9
2019-Apr-20 05:00N 60°00' E 000°00'6 6.0 180 / 251028.0 9.1 5.0 8.0
2019-Apr-20 04:00N 60°00' E 000°12'3 7.1 180 / 231028.2 9.5 4.5 7.9
2019-Apr-20 03:36N 60°00' E 000°18'0 4.9
2019-Apr-20 03:30N 60°00' E 000°18'1 2.8
2019-Apr-20 03:00N 60°00' E 000°21'2494.2
2019-Apr-20 03:00N 60°00' E 000°18'612.4 180 / 231028.7 9.3 4.7 7.7
2019-Apr-20 02:30N 60°00' E 000°30'713.5
2019-Apr-20 02:00N 59°54' E 000°36'6775.9 170 / 231029.5 9.4 4.4 7.7
2019-Apr-20 01:59N 59°60' E 000°39'0 0.1
2019-Apr-20 01:29N 59°60' E 000°39'612.0
2019-Apr-20 01:00N 59°54' E 000°42'63051.0 170 / 211030.2 8.9 4.7 7.7
2019-Apr-20 00:59N 59°60' E 000°43'8 8.7
2019-Apr-20 00:05N 59°60' E 000°59'673.0
2019-Apr-20 00:00N 59°54' E 000°54'61368.4 160 / 211030.7 8.8 4.8 7.8
2019-Apr-19 23:59N 59°60' E 000°59'1 2.5
2019-Apr-19 23:30N 60°00' E 001°01'2 4.6
2019-Apr-19 23:00N 60°00' E 001°06'6 9.9 160 / 191031.7 8.7 4.9 7.8
2019-Apr-19 22:25N 60°00' E 001°17'1 2.0
2019-Apr-19 22:00N 60°00' E 001°19'1691.7
2019-Apr-19 22:00N 60°00' E 001°18'510.6 160 / 191032.4 8.5 4.5 7.7
2019-Apr-19 21:30N 60°00' E 001°28'1 1.5
2019-Apr-19 21:00N 60°00' E 001°30'3261.0 160 / 161033.0 8.5 4.3 7.7
2019-Apr-19 20:59N 60°00' E 001°35'2 3.5
2019-Apr-19 20:29N 59°60' E 001°39'3 5.8
2019-Apr-19 20:00N 60°00' E 001°44'182.6
2019-Apr-19 20:00N 60°00' E 001°42'612.0 150 / 191033.5 8.5 4.4 7.9
2019-Apr-19 19:30N 59°60' E 001°54'0 0.3
2019-Apr-19 19:00N 60°00' E 001°54'21142.2 160 / 171033.5 8.5 4.3 8.0
2019-Apr-19 18:59N 60°00' E 001°58'1 1.9
2019-Apr-19 18:30N 60°00' E 002°00'2 3.9
2019-Apr-19 18:00N 60°00' E 002°04'2633.1
2019-Apr-19 18:00N 60°00' E 002°00'714.2 160 / 171033.7 8.8 4.0 7.9
2019-Apr-19 17:30N 60°00' E 002°14'5 9.8
2019-Apr-19 17:00N 60°00' E 002°24'3238.7
2019-Apr-19 17:00N 60°00' E 002°18'612.7 160 / 161034.2 9.2 3.9 8.4
2019-Apr-19 16:29N 59°60' E 002°31'613.3
2019-Apr-19 16:00N 59°54' E 002°36'1010.5 160 / 161035.0 9.5 3.8 8.6
2019-Apr-19 15:05N 59°60' E 002°51'664.2
2019-Apr-19 15:00N 59°54' E 002°48'6566.0 150 / 161035.7 9.6 3.4 8.3
2019-Apr-19 14:59N 59°60' E 002°51'3 5.3
2019-Apr-19 14:24N 59°60' E 002°57'615.1
2019-Apr-19 14:00N 59°54' E 003°00'632.1 150 / 141036.2 10.0 3.3 8.4
2019-Apr-19 13:48N 59°60' E 003°01'1 2.8
2019-Apr-19 13:29N 59°60' E 003°03'2 4.7
2019-Apr-19 13:00N 59°60' E 003°07'6674.1
2019-Apr-19 13:00N 59°54' E 003°06'713.6 150 / 141036.6 9.5 3.5 8.4
2019-Apr-19 12:30N 60°00' E 003°11'5 9.1
2019-Apr-19 12:00N 59°60' E 003°20'6676.4
2019-Apr-19 12:00N 59°54' E 003°18'613.0 150 / 121037.2 9.2 3.8 8.2
2019-Apr-19 11:30N 60°00' E 003°22'4 8.9
2019-Apr-19 11:00N 59°60' E 003°31'6399.3
2019-Apr-19 11:00N 59°54' E 003°30'713.1 160 / 141037.5 8.9 3.2 8.1
2019-Apr-19 10:30N 60°00' E 003°33'2 4.5
2019-Apr-19 10:00N 60°00' E 003°38'1104.5
2019-Apr-19 10:00N 60°00' E 003°36'2 3.9 150 / 12 8.8 3.4 7.2
2019-Apr-19 09:30N 60°00' E 003°40'1 1.2
2019-Apr-19 09:00N 60°00' E 003°41'3707.4
2019-Apr-19 09:00N 60°00' E 003°36'3 5.2 140 / 141038.5 8.4 3.2 7.1
2019-Apr-19 08:30N 60°00' E 003°41'1 2.2
2019-Apr-19 08:00N 60°00' E 003°43'1107.5
2019-Apr-19 08:00N 60°00' E 003°42'3 6.5 140 / 121037.7 8.4 3.1 6.9
2019-Apr-19 07:30N 60°00' E 003°48'2 3.9
2019-Apr-19 07:00N 60°00' E 003°52'6997.2
2019-Apr-19 07:00N 59°54' E 003°48'917.7 150 / 141037.7 8.1 3.2 6.7
2019-Apr-19 06:30N 60°00' E 004°01'2 4.9
2019-Apr-19 06:00N 60°00' E 004°05'3824.1
2019-Apr-19 06:00N 60°00' E 004°00'511.1 150 / 121037.7 8.3 2.3 7.2
2019-Apr-19 05:30N 60°00' E 004°11'2 3.4
2019-Apr-19 05:00N 60°00' E 004°14'1104.6
2019-Apr-19 05:00N 60°00' E 004°12'4 7.3 160 / 101037.5 8.6 2.4 7.1
2019-Apr-19 04:30N 60°00' E 004°19'1 2.5
2019-Apr-19 04:00N 60°00' E 004°22'2206.9
2019-Apr-19 04:00N 60°00' E 004°18'2 3.0 160 / 121037.2 8.8 1.9 7.1
2019-Apr-19 03:28N 60°00' E 004°21'0 0.6
2019-Apr-19 03:00N 60°00' E 004°22'2155.4
2019-Apr-19 03:00N 60°00' E 004°18'612.7 170 / 141037.4 8.5 2.3 7.0
2019-Apr-19 02:30N 60°00' E 004°31'0 0.8
2019-Apr-19 02:00N 59°60' E 004°31'6412.4
2019-Apr-19 02:00N 59°54' E 004°30'613.0 160 / 81037.4 9.0 0.9 7.4
2019-Apr-19 01:30N 60°00' E 004°34'3 6.9
2019-Apr-19 01:00N 59°60' E 004°41'6543.3
2019-Apr-19 01:00N 59°54' E 004°36'613.2 140 / 81037.7 9.5 0.5 7.6
2019-Apr-19 00:30N 59°60' E 004°41'3 6.9
2019-Apr-19 00:00N 59°60' E 004°48'7428.0
2019-Apr-19 00:00N 59°54' E 004°42'713.4 100 / 41037.9 9.1 2.3 7.8
2019-Apr-18 23:30N 59°60' E 004°48'4 7.8
2019-Apr-18 23:00N 59°60' E 004°56'6636.8
2019-Apr-18 23:00N 59°54' E 004°54'613.1 070 / 41037.8 10.1-1.9 7.0
2019-Apr-18 22:30N 60°00' E 004°57'0 0.4
2019-Apr-18 22:00N 60°00' E 004°57'2102.9
2019-Apr-18 22:00N 60°00' E 004°54'3 6.2 100 / 41037.7 10.0-2.1 7.0
2019-Apr-18 21:29N 59°57' E 004°58'3 6.8
2019-Apr-18 21:00N 59°54' E 004°58'2244.6
2019-Apr-18 21:00N 59°54' E 004°54'611.5 070 / 21037.5 11.3-3.6 7.6
2019-Apr-18 20:30N 59°49' E 004°59'510.5
2019-Apr-18 20:00N 59°44' E 005°00'2127.5
2019-Apr-18 20:00N 59°42' E 005°00'3 7.1 150 / 21037.4 11.4-4.1 7.3
2019-Apr-18 19:30N 59°39' E 005°01'510.6
2019-Apr-18 19:00N 59°33' E 005°02'3284.2
2019-Apr-18 19:00N 59°30' E 005°00'3 7.0 130 / 41037.0 10.6-2.4 7.0
2019-Apr-18 18:31N 59°29' E 005°06'3 6.8
2019-Apr-18 18:00N 59°27' E 005°11'4341.0
2019-Apr-18 18:00N 59°24' E 005°06'612.5 230 / 41036.7 11.8-4.0 6.9
2019-Apr-18 17:31N 59°23' E 005°18'510.0
2019-Apr-18 17:00N 59°18' E 005°20'6415.9
2019-Apr-18 17:00N 59°12' E 005°18'2 3.7 200 / 101036.5 11.5 0.9 7.7
2019-Apr-18 16:30N 59°13' E 005°21'5 9.3
2019-Apr-18 16:00N 59°08' E 005°24'4259.3
2019-Apr-18 16:00N 59°06' E 005°18'714.5 240 / 61036.8 11.1 0.1 7.6
2019-Apr-18 15:30N 59°06' E 005°32'5 9.9
2019-Apr-18 15:01N 59°02' E 005°37'2118.4
2019-Apr-18 15:00N 59°00' E 005°36'4 7.2 250 / 101036.7 12.0-1.9 7.7
2019-Apr-18 14:30N 58°59' E 005°43'510.2
2019-Apr-18 14:00N 58°54' E 005°42'4194.4 280 / 81036.5 14.7-3.1 7.7
2019-Apr-18 13:58N 58°58' E 005°44'0 0.0
2019-Apr-18 13:30N 58°58' E 005°44'1 2.0
2019-Apr-18 13:00N 58°59' E 005°43'5330.7
2019-Apr-18 13:00N 58°54' E 005°42'918.8 330 / 81036.7 14.9-3.1 7.4
2019-Apr-18 12:30N 59°02' E 005°35'510.2
2019-Apr-18 12:00N 59°06' E 005°29'2182.6
2019-Apr-18 12:00N 59°06' E 005°24'3 7.0 060 / 101036.9 11.8-1.4 6.8
2019-Apr-18 11:30N 59°07' E 005°18'510.6
2019-Apr-18 11:00N 59°09' E 005°08'3186.1
2019-Apr-18 11:00N 59°06' E 005°06'816.4 130 / 12 12.5-3.3 7.1
2019-Apr-18 10:30N 59°14' E 005°02'3 6.7
2019-Apr-18 10:00N 59°17' E 005°02'5391.6
2019-Apr-18 10:00N 59°12' E 005°00'510.4 130 / 101037.0 12.5-3.6 6.8
2019-Apr-18 09:30N 59°17' E 004°59'2 3.0
2019-Apr-18 09:00N 59°17' E 004°56'5535.6
2019-Apr-18 09:00N 59°12' E 004°54'715.2 120 / 161036.9 10.1-0.1 6.7
2019-Apr-18 08:30N 59°19' E 004°51'2 4.4
2019-Apr-18 08:00N 59°17' E 004°50'5329.2
2019-Apr-18 08:00N 59°12' E 004°48'510.5 100 / 141036.5 9.0 0.7 6.7
2019-Apr-18 07:30N 59°17' E 004°50'4 7.1
2019-Apr-18 07:00N 59°17' E 004°43'5397.3
2019-Apr-18 07:00N 59°12' E 004°42'510.5 100 / 161035.7 8.3-0.0 6.6
2019-Apr-18 06:30N 59°17' E 004°40'5 9.2
2019-Apr-18 06:00N 59°17' E 004°31'5704.4
2019-Apr-18 06:00N 59°12' E 004°30'510.7 110 / 141035.7 7.9-0.0 6.9
2019-Apr-18 05:30N 59°17' E 004°30'0 0.4
2019-Apr-18 05:00N 59°17' E 004°30'61320.9
2019-Apr-18 05:00N 59°12' E 004°24'510.7 110 / 161035.2 7.8-0.2 6.9
2019-Apr-18 04:30N 59°17' E 004°23'2 3.1
2019-Apr-18 04:00N 59°17' E 004°20'5325.8
2019-Apr-18 04:00N 59°12' E 004°18'611.3 120 / 141034.7 7.7 1.6 6.8
2019-Apr-18 03:30N 59°17' E 004°14'2 3.2
2019-Apr-18 03:00N 59°17' E 004°11'62663.2
2019-Apr-18 03:00N 59°12' E 004°06'611.5 120 / 141034.7 7.7 1.4 6.6
2019-Apr-18 02:30N 59°17' E 004°11'1 1.8
2019-Apr-18 02:00N 59°17' E 004°09'5420.5
2019-Apr-18 02:00N 59°12' E 004°06'510.9 120 / 161034.7 7.8 1.7 6.5
2019-Apr-18 01:30N 59°17' E 004°08'1 1.7
2019-Apr-18 01:00N 59°17' E 004°06'52644.5
2019-Apr-18 01:00N 59°12' E 004°06'511.1 120 / 141034.5 7.5 2.6 6.7
2019-Apr-18 00:30N 59°17' E 004°02'1 2.9
2019-Apr-18 00:00N 59°17' E 003°59'6569.7
2019-Apr-18 00:00N 59°12' E 003°54'510.3 130 / 161034.2 7.7 2.6 7.0
2019-Apr-17 23:30N 59°17' E 003°55'2 3.7
2019-Apr-17 23:00N 59°17' E 003°59'6452.1
2019-Apr-17 23:00N 59°12' E 003°54'511.0 140 / 161034.0 8.0 1.9 7.1
2019-Apr-17 22:30N 59°17' E 003°55'2 3.8
2019-Apr-17 22:00N 59°17' E 003°52'6557.4
2019-Apr-17 22:00N 59°12' E 003°48'511.2 140 / 191033.4 8.6 0.8 7.1
2019-Apr-17 21:30N 59°17' E 003°51'1 1.4
2019-Apr-17 21:00N 59°17' E 003°50'4 8.8
2019-Apr-17 20:30N 59°17' E 003°41'1 2.1
2019-Apr-17 20:00N 59°17' E 003°39'5336.6
2019-Apr-17 20:00N 59°12' E 003°36'511.0 140 / 211032.0 8.8 1.0 7.5
2019-Apr-17 19:30N 59°17' E 003°32'0 0.3
2019-Apr-17 19:00N 59°17' E 003°32'51148.7
2019-Apr-17 19:00N 59°12' E 003°30'612.5 140 / 231031.5 8.5 0.7 7.1
2019-Apr-17 18:30N 59°17' E 003°23'1 2.7
2019-Apr-17 18:00N 59°18' E 003°21'6572.8
2019-Apr-17 18:00N 59°12' E 003°18'611.4 140 / 251030.7 8.5 0.7 7.9
2019-Apr-17 17:30N 59°18' E 003°17'2 3.7
2019-Apr-17 17:00N 59°17' E 003°13'52707.9
2019-Apr-17 17:00N 59°12' E 003°12'510.6 140 / 271030.5 8.7 0.5 8.1
2019-Apr-17 16:30N 59°17' E 003°13'0 0.9
2019-Apr-17 16:00N 59°17' E 003°12'5401.8
2019-Apr-17 16:00N 59°12' E 003°12'613.2 150 / 271030.2 8.7-0.0 7.9
2019-Apr-17 15:30N 59°17' E 003°04'610.9
2019-Apr-17 15:00N 59°12' E 003°00'5136.7 140 / 251030.2 8.5 0.5 7.5
2019-Apr-17 14:57N 59°17' E 002°60'3 6.2
2019-Apr-17 14:30N 59°17' E 002°54'611.8
2019-Apr-17 14:00N 59°12' E 002°48'516.5 140 / 231030.2 8.0 1.7 7.6
2019-Apr-17 13:41N 59°17' E 002°45'710.2
2019-Apr-17 13:00N 59°12' E 002°36'3 3.1 140 / 231030.3 7.7 2.6 7.4
2019-Apr-17 12:00N 59°12' E 002°30'3 3.1 140 / 231030.3 7.5 2.4 7.3
2019-Apr-17 11:00N 59°12' E 002°24'6 6.1 130 / 231030.1 7.4 2.2 7.4
2019-Apr-17 10:00N 59°12' E 002°12'6 6.1 120 / 191030.0 7.6 2.9 7.2
2019-Apr-17 09:00N 59°12' E 002°00'6 6.1 120 / 191029.8 7.5 2.9 7.3
2019-Apr-17 08:00N 59°12' E 001°48'6 6.1 110 / 171029.2 7.2 2.5 7.3
2019-Apr-17 07:00N 59°12' E 001°36'9 9.2 110 / 171029.0 7.1 1.8 7.3
2019-Apr-17 06:00N 59°12' E 001°18'0 0.0 110 / 191028.8 7.1 0.6 7.4
2019-Apr-17 05:00N 59°12' E 001°18'9 9.2 100 / 191028.5 7.0 0.5 7.4
2019-Apr-17 04:00N 59°12' E 001°00'6 6.1 100 / 211028.2 6.9 0.6 7.4
2019-Apr-17 03:00N 59°12' E 000°48'6 6.1 110 / 231028.2 7.2 0.4 7.4
2019-Apr-17 02:00N 59°12' E 000°36'3 3.1 120 / 211028.5 7.2-0.0 7.5
2019-Apr-17 01:00N 59°12' E 000°30'6 6.1 120 / 211028.4 7.0 0.8 7.4
2019-Apr-17 00:00N 59°12' E 000°18'6 6.1 120 / 191028.5 7.0 0.7 7.5
2019-Apr-16 23:00N 59°12' E 000°06'3 3.1 130 / 191028.5 6.7-0.0 7.4
2019-Apr-16 22:00N 59°12' E 000°00'0 0.0 120 / 231028.5 6.6-0.0 7.5
2019-Apr-16 21:00N 59°12' E 000°00'9 9.2 120 / 251028.2 6.8-0.2 7.4
2019-Apr-16 20:00N 59°12' W 000°18'6 6.1 130 / 191028.5 7.0 0.7 7.5
2019-Apr-16 19:00N 59°12' W 000°30'3 3.1 140 / 171027.7 7.2 2.3 7.5
2019-Apr-16 18:00N 59°12' W 000°36'9 9.2 130 / 211027.1 7.3 2.2 7.5
2019-Apr-16 17:00N 59°12' W 000°54'6 6.1 130 / 231027.0 7.4 2.2 7.6
2019-Apr-16 16:00N 59°12' W 001°06'6 6.1 120 / 271026.7 7.6 1.9 7.6
2019-Apr-16 15:00N 59°12' W 001°18'3 3.1 130 / 251026.8 7.6 1.6 7.8
2019-Apr-16 14:00N 59°12' W 001°24'6 6.1 130 / 271026.5 7.7 1.3 7.8
2019-Apr-16 13:00N 59°12' W 001°36'6 6.1 130 / 271026.5 7.7 0.9 7.9
2019-Apr-16 12:00N 59°12' W 001°48'3 3.1 130 / 271025.9 7.5 1.8 7.9
2019-Apr-16 11:00N 59°12' W 001°54'6 6.1 130 / 27 7.5 1.2 8.0
2019-Apr-16 10:00N 59°12' W 002°06'3 3.1 130 / 271025.5 7.4 1.8 7.8
2019-Apr-16 09:00N 59°12' W 002°12'1212.4 130 / 311025.3 7.5 1.5 7.8
2019-Apr-16 08:00N 59°24' W 002°06'6 6.1 130 / 291025.5 7.4 1.5 7.9
2019-Apr-16 07:00N 59°24' W 001°54'0 0.0 120 / 291025.7 7.2 1.9 7.9
2019-Apr-16 06:00N 59°24' W 001°54'7 6.7 130 / 291025.5 7.1 2.0 7.9
2019-Apr-16 05:00N 59°30' W 001°48'7 6.7 130 / 291025.5 7.0 1.6 7.9
2019-Apr-16 04:00N 59°36' W 001°42'6 6.1 130 / 251026.0 6.9 1.6 7.8
2019-Apr-16 03:00N 59°36' W 001°30'9 4.3 130 / 331026.7 6.7 0.6 7.8
2019-Apr-16 01:00N 59°42' W 001°18'9 8.5 120 / 311026.8 6.7-0.2 7.6
2019-Apr-16 00:00N 59°48' W 001°06'7 3.4 120 / 291027.2 6.9 0.4 7.5
2019-Apr-15 22:00N 59°54' W 001°00'6 6.0 120 / 291027.9 6.9 2.0 7.6
2019-Apr-15 21:00N 60°00' W 001°00'7 6.7 120 / 291028.0 7.0 2.2 7.6
2019-Apr-15 20:00N 60°06' W 001°06'0 0.0 120 / 251027.7 7.0 1.9 7.6
2019-Apr-15 19:00N 60°06' W 001°06'0 0.0 120 / 231028.0 7.0 2.1 7.7
2019-Apr-15 18:00N 60°06' W 001°06'0 0.0 120 / 251028.1 7.2 1.7 7.9
2019-Apr-15 17:00N 60°06' W 001°06'6 6.0 120 / 251028.0 7.4 1.7 7.6
2019-Apr-15 16:00N 60°06' W 000°54'8 8.5 120 / 271029.0 7.2 2.5 7.7
2019-Apr-15 15:00N 60°12' W 000°42'31 7.6 120 / 291029.5 7.2 2.5 7.9
2019-Apr-15 11:00N 60°42' W 000°30'3 2.9 120 / 251032.5 7.0 1.0 8.5
2019-Apr-15 10:00N 60°42' W 000°24'6 5.9 130 / 271032.5 6.7 0.3 8.3
2019-Apr-15 09:00N 60°42' W 000°12'6 5.9 130 / 231033.8 6.7-0.0 8.3
2019-Apr-15 08:00N 60°42' E 000°00'6 5.9 130 / 231033.7 7.0-0.4 8.3
2019-Apr-15 07:00N 60°42' E 000°12'3 2.9 130 / 231033.7 6.7-0.6 8.3
2019-Apr-15 06:00N 60°42' E 000°18'6 5.9 140 / 191034.0 6.7-1.0 8.4
2019-Apr-15 05:00N 60°42' E 000°30'9 8.8 140 / 19 6.2-1.6 8.3
2019-Apr-15 04:00N 60°42' E 000°48'3 2.9 120 / 171034.9 6.0-1.2 8.2
2019-Apr-15 03:00N 60°42' E 000°54'6 5.9 140 / 161035.4 6.0-1.2 8.3
2019-Apr-15 02:00N 60°42' E 001°06'15 7.3 150 / 141035.7 6.0-1.3 8.1
2019-Apr-15 00:00N 60°42' E 001°36'9 8.8 150 / 101036.2 6.3-1.8 7.9
2019-Apr-14 23:00N 60°42' E 001°54'   180 / 41036.4 6.0-2.0 7.9

Dump ship's entire track history